sensor_id;sensor_type;location;lat;lon;timestamp;P1;durP1;ratioP1;P2;durP2;ratioP2
63688;SDS011;54895;40.928;14.480;2023-05-10T00:02:18;27.55;;;19.10;;
63688;SDS011;54895;40.928;14.480;2023-05-10T00:04:45;34.15;;;20.83;;
63688;SDS011;54895;40.928;14.480;2023-05-10T00:07:12;29.33;;;19.70;;
63688;SDS011;54895;40.928;14.480;2023-05-10T00:09:39;30.02;;;20.15;;
63688;SDS011;54895;40.928;14.480;2023-05-10T00:12:06;30.10;;;18.70;;
63688;SDS011;54895;40.928;14.480;2023-05-10T00:14:32;25.58;;;18.15;;
63688;SDS011;54895;40.928;14.480;2023-05-10T00:16:59;30.38;;;18.02;;
63688;SDS011;54895;40.928;14.480;2023-05-10T00:19:26;27.48;;;17.70;;
63688;SDS011;54895;40.928;14.480;2023-05-10T00:21:53;27.13;;;17.08;;
63688;SDS011;54895;40.928;14.480;2023-05-10T00:24:19;27.58;;;18.60;;
63688;SDS011;54895;40.928;14.480;2023-05-10T00:26:46;26.92;;;18.70;;
63688;SDS011;54895;40.928;14.480;2023-05-10T00:29:13;30.60;;;20.58;;
63688;SDS011;54895;40.928;14.480;2023-05-10T00:31:40;29.17;;;19.35;;
63688;SDS011;54895;40.928;14.480;2023-05-10T00:34:07;29.00;;;20.17;;
63688;SDS011;54895;40.928;14.480;2023-05-10T00:36:33;32.35;;;20.75;;
63688;SDS011;54895;40.928;14.480;2023-05-10T00:39:00;32.72;;;19.40;;
63688;SDS011;54895;40.928;14.480;2023-05-10T00:41:27;30.35;;;19.15;;
63688;SDS011;54895;40.928;14.480;2023-05-10T00:43:54;33.67;;;20.75;;
63688;SDS011;54895;40.928;14.480;2023-05-10T00:46:21;35.75;;;20.77;;
63688;SDS011;54895;40.928;14.480;2023-05-10T00:48:47;29.15;;;18.98;;
63688;SDS011;54895;40.928;14.480;2023-05-10T00:51:15;31.55;;;19.25;;
63688;SDS011;54895;40.928;14.480;2023-05-10T00:53:42;29.48;;;19.10;;
63688;SDS011;54895;40.928;14.480;2023-05-10T00:56:12;30.85;;;19.17;;
63688;SDS011;54895;40.928;14.480;2023-05-10T00:58:39;30.58;;;20.45;;
63688;SDS011;54895;40.928;14.480;2023-05-10T01:01:07;29.33;;;20.10;;
63688;SDS011;54895;40.928;14.480;2023-05-10T01:03:35;30.23;;;20.02;;
63688;SDS011;54895;40.928;14.480;2023-05-10T01:06:02;28.25;;;19.20;;
63688;SDS011;54895;40.928;14.480;2023-05-10T01:08:29;29.52;;;19.70;;
63688;SDS011;54895;40.928;14.480;2023-05-10T01:10:56;30.30;;;19.88;;
63688;SDS011;54895;40.928;14.480;2023-05-10T01:16:00;34.55;;;20.73;;
63688;SDS011;54895;40.928;14.480;2023-05-10T01:18:31;30.80;;;20.63;;
63688;SDS011;54895;40.928;14.480;2023-05-10T01:21:11;36.45;;;22.73;;
63688;SDS011;54895;40.928;14.480;2023-05-10T01:40:58;32.75;;;21.70;;
63688;SDS011;54895;40.928;14.480;2023-05-10T01:46:39;38.50;;;22.95;;
63688;SDS011;54895;40.928;14.480;2023-05-10T01:49:08;36.28;;;22.75;;
63688;SDS011;54895;40.928;14.480;2023-05-10T01:51:46;34.53;;;21.48;;
63688;SDS011;54895;40.928;14.480;2023-05-10T01:54:14;34.83;;;21.17;;
63688;SDS011;54895;40.928;14.480;2023-05-10T01:56:45;37.00;;;23.88;;
63688;SDS011;54895;40.928;14.480;2023-05-10T01:59:16;36.22;;;23.08;;
63688;SDS011;54895;40.928;14.480;2023-05-10T02:01:45;35.65;;;19.58;;
63688;SDS011;54895;40.928;14.480;2023-05-10T02:04:14;35.47;;;23.23;;
63688;SDS011;54895;40.928;14.480;2023-05-10T02:06:43;28.75;;;16.92;;
63688;SDS011;54895;40.928;14.480;2023-05-10T02:09:11;17.35;;;10.65;;
63688;SDS011;54895;40.928;14.480;2023-05-10T02:11:38;21.85;;;10.80;;
63688;SDS011;54895;40.928;14.480;2023-05-10T02:14:07;14.10;;;9.23;;
63688;SDS011;54895;40.928;14.480;2023-05-10T02:16:36;16.08;;;8.40;;
63688;SDS011;54895;40.928;14.480;2023-05-10T02:19:04;12.90;;;7.53;;
63688;SDS011;54895;40.928;14.480;2023-05-10T02:21:31;15.30;;;8.05;;
63688;SDS011;54895;40.928;14.480;2023-05-10T02:24:00;13.85;;;8.15;;
63688;SDS011;54895;40.928;14.480;2023-05-10T02:26:28;19.45;;;10.10;;
63688;SDS011;54895;40.928;14.480;2023-05-10T02:28:56;14.23;;;8.95;;
63688;SDS011;54895;40.928;14.480;2023-05-10T02:31:24;15.18;;;8.50;;
63688;SDS011;54895;40.928;14.480;2023-05-10T02:37:35;16.83;;;9.98;;
63688;SDS011;54895;40.928;14.480;2023-05-10T02:40:04;14.32;;;8.55;;
63688;SDS011;54895;40.928;14.480;2023-05-10T02:42:32;11.75;;;7.50;;
63688;SDS011;54895;40.928;14.480;2023-05-10T02:45:13;14.48;;;8.80;;
63688;SDS011;54895;40.928;14.480;2023-05-10T02:47:43;14.98;;;8.68;;
63688;SDS011;54895;40.928;14.480;2023-05-10T02:50:10;15.25;;;8.80;;
63688;SDS011;54895;40.928;14.480;2023-05-10T02:52:39;16.95;;;9.88;;
63688;SDS011;54895;40.928;14.480;2023-05-10T02:55:12;15.05;;;8.10;;
63688;SDS011;54895;40.928;14.480;2023-05-10T02:57:45;16.42;;;9.32;;
63688;SDS011;54895;40.928;14.480;2023-05-10T03:00:17;15.25;;;9.00;;
63688;SDS011;54895;40.928;14.480;2023-05-10T03:02:44;14.80;;;8.88;;
63688;SDS011;54895;40.928;14.480;2023-05-10T03:05:11;19.63;;;8.13;;
63688;SDS011;54895;40.928;14.480;2023-05-10T03:07:37;14.40;;;8.77;;
63688;SDS011;54895;40.928;14.480;2023-05-10T03:10:04;13.85;;;9.18;;
63688;SDS011;54895;40.928;14.480;2023-05-10T03:16:14;14.60;;;9.27;;
63688;SDS011;54895;40.928;14.480;2023-05-10T03:21:12;18.02;;;11.55;;
63688;SDS011;54895;40.928;14.480;2023-05-10T03:23:54;20.90;;;12.20;;
63688;SDS011;54895;40.928;14.480;2023-05-10T03:26:35;16.58;;;10.27;;
63688;SDS011;54895;40.928;14.480;2023-05-10T03:29:09;18.02;;;9.65;;
63688;SDS011;54895;40.928;14.480;2023-05-10T03:31:38;15.48;;;10.93;;
63688;SDS011;54895;40.928;14.480;2023-05-10T03:37:48;16.88;;;9.27;;
63688;SDS011;54895;40.928;14.480;2023-05-10T03:40:14;15.07;;;10.25;;
63688;SDS011;54895;40.928;14.480;2023-05-10T03:42:42;18.45;;;10.65;;
63688;SDS011;54895;40.928;14.480;2023-05-10T03:45:09;15.95;;;11.15;;
63688;SDS011;54895;40.928;14.480;2023-05-10T03:47:35;14.93;;;9.70;;
63688;SDS011;54895;40.928;14.480;2023-05-10T03:50:02;18.35;;;10.43;;
63688;SDS011;54895;40.928;14.480;2023-05-10T03:52:30;14.02;;;9.45;;
63688;SDS011;54895;40.928;14.480;2023-05-10T03:54:57;14.02;;;8.93;;
63688;SDS011;54895;40.928;14.480;2023-05-10T03:57:24;18.13;;;9.75;;
63688;SDS011;54895;40.928;14.480;2023-05-10T03:59:50;14.93;;;9.63;;
63688;SDS011;54895;40.928;14.480;2023-05-10T04:02:16;14.00;;;8.63;;
63688;SDS011;54895;40.928;14.480;2023-05-10T04:04:43;14.07;;;8.27;;
63688;SDS011;54895;40.928;14.480;2023-05-10T04:07:09;13.55;;;8.30;;
63688;SDS011;54895;40.928;14.480;2023-05-10T04:09:36;14.48;;;8.95;;
63688;SDS011;54895;40.928;14.480;2023-05-10T04:12:02;21.23;;;12.10;;
63688;SDS011;54895;40.928;14.480;2023-05-10T04:14:28;26.23;;;14.07;;
63688;SDS011;54895;40.928;14.480;2023-05-10T04:16:56;28.45;;;15.88;;
63688;SDS011;54895;40.928;14.480;2023-05-10T04:19:22;36.70;;;18.58;;
63688;SDS011;54895;40.928;14.480;2023-05-10T04:21:49;35.75;;;18.27;;
63688;SDS011;54895;40.928;14.480;2023-05-10T04:24:15;18.50;;;11.25;;
63688;SDS011;54895;40.928;14.480;2023-05-10T04:26:41;17.35;;;10.80;;
63688;SDS011;54895;40.928;14.480;2023-05-10T04:29:07;18.85;;;11.38;;
63688;SDS011;54895;40.928;14.480;2023-05-10T04:31:34;16.42;;;10.07;;
63688;SDS011;54895;40.928;14.480;2023-05-10T04:37:49;15.90;;;10.23;;
63688;SDS011;54895;40.928;14.480;2023-05-10T04:40:16;16.30;;;10.57;;
63688;SDS011;54895;40.928;14.480;2023-05-10T04:42:43;15.60;;;9.80;;
63688;SDS011;54895;40.928;14.480;2023-05-10T04:45:10;18.73;;;11.25;;
63688;SDS011;54895;40.928;14.480;2023-05-10T04:47:37;16.08;;;9.98;;
63688;SDS011;54895;40.928;14.480;2023-05-10T04:50:04;19.00;;;10.38;;
63688;SDS011;54895;40.928;14.480;2023-05-10T04:52:31;14.45;;;9.38;;
63688;SDS011;54895;40.928;14.480;2023-05-10T04:54:58;16.30;;;10.23;;
63688;SDS011;54895;40.928;14.480;2023-05-10T04:57:24;15.75;;;10.10;;
63688;SDS011;54895;40.928;14.480;2023-05-10T04:59:51;16.50;;;9.70;;
63688;SDS011;54895;40.928;14.480;2023-05-10T05:02:18;20.55;;;11.45;;
63688;SDS011;54895;40.928;14.480;2023-05-10T05:04:45;19.80;;;11.85;;
63688;SDS011;54895;40.928;14.480;2023-05-10T05:07:12;20.08;;;11.82;;
63688;SDS011;54895;40.928;14.480;2023-05-10T05:09:39;20.25;;;10.85;;
63688;SDS011;54895;40.928;14.480;2023-05-10T05:12:05;18.67;;;11.63;;
63688;SDS011;54895;40.928;14.480;2023-05-10T05:14:32;19.85;;;12.15;;
63688;SDS011;54895;40.928;14.480;2023-05-10T05:16:59;17.92;;;10.82;;
63688;SDS011;54895;40.928;14.480;2023-05-10T05:19:26;20.23;;;11.85;;
63688;SDS011;54895;40.928;14.480;2023-05-10T05:21:53;23.77;;;12.05;;
63688;SDS011;54895;40.928;14.480;2023-05-10T05:24:21;18.50;;;11.52;;
63688;SDS011;54895;40.928;14.480;2023-05-10T05:26:47;16.95;;;10.48;;
63688;SDS011;54895;40.928;14.480;2023-05-10T05:29:14;12.25;;;9.85;;
63688;SDS011;54895;40.928;14.480;2023-05-10T05:31:41;14.82;;;10.23;;
63688;SDS011;54895;40.928;14.480;2023-05-10T05:37:58;14.15;;;10.30;;
63688;SDS011;54895;40.928;14.480;2023-05-10T05:40:25;15.50;;;10.40;;
63688;SDS011;54895;40.928;14.480;2023-05-10T05:42:52;14.27;;;10.43;;
63688;SDS011;54895;40.928;14.480;2023-05-10T05:45:18;16.27;;;11.30;;
63688;SDS011;54895;40.928;14.480;2023-05-10T05:47:46;16.60;;;11.60;;
63688;SDS011;54895;40.928;14.480;2023-05-10T05:50:13;18.67;;;10.85;;
63688;SDS011;54895;40.928;14.480;2023-05-10T05:52:40;16.58;;;10.23;;
63688;SDS011;54895;40.928;14.480;2023-05-10T05:55:08;15.13;;;10.63;;
63688;SDS011;54895;40.928;14.480;2023-05-10T05:57:35;14.48;;;9.75;;
63688;SDS011;54895;40.928;14.480;2023-05-10T06:00:02;12.10;;;9.48;;
63688;SDS011;54895;40.928;14.480;2023-05-10T06:02:38;12.95;;;9.82;;
63688;SDS011;54895;40.928;14.480;2023-05-10T06:05:05;13.13;;;8.77;;
63688;SDS011;54895;40.928;14.480;2023-05-10T06:07:32;15.38;;;10.18;;
63688;SDS011;54895;40.928;14.480;2023-05-10T06:09:59;14.15;;;10.02;;
63688;SDS011;54895;40.928;14.480;2023-05-10T06:12:26;20.35;;;13.55;;
63688;SDS011;54895;40.928;14.480;2023-05-10T06:14:53;16.42;;;11.65;;
63688;SDS011;54895;40.928;14.480;2023-05-10T06:17:20;17.40;;;11.35;;
63688;SDS011;54895;40.928;14.480;2023-05-10T06:19:47;16.92;;;11.82;;
63688;SDS011;54895;40.928;14.480;2023-05-10T06:22:14;19.38;;;11.95;;
63688;SDS011;54895;40.928;14.480;2023-05-10T06:24:41;16.83;;;11.77;;
63688;SDS011;54895;40.928;14.480;2023-05-10T06:27:07;21.02;;;13.10;;
63688;SDS011;54895;40.928;14.480;2023-05-10T06:29:34;18.88;;;13.02;;
63688;SDS011;54895;40.928;14.480;2023-05-10T06:32:00;19.80;;;12.88;;
63688;SDS011;54895;40.928;14.480;2023-05-10T06:38:05;20.83;;;13.32;;
63688;SDS011;54895;40.928;14.480;2023-05-10T06:40:32;20.17;;;12.90;;
63688;SDS011;54895;40.928;14.480;2023-05-10T06:42:58;17.75;;;12.30;;
63688;SDS011;54895;40.928;14.480;2023-05-10T06:45:24;17.15;;;12.75;;
63688;SDS011;54895;40.928;14.480;2023-05-10T06:47:51;14.70;;;10.63;;
63688;SDS011;54895;40.928;14.480;2023-05-10T06:50:17;17.33;;;12.18;;
63688;SDS011;54895;40.928;14.480;2023-05-10T06:52:43;15.93;;;11.52;;
63688;SDS011;54895;40.928;14.480;2023-05-10T06:55:10;16.27;;;10.25;;
63688;SDS011;54895;40.928;14.480;2023-05-10T06:57:36;14.95;;;10.60;;
63688;SDS011;54895;40.928;14.480;2023-05-10T07:00:02;15.82;;;10.68;;
63688;SDS011;54895;40.928;14.480;2023-05-10T07:02:32;15.93;;;10.93;;
63688;SDS011;54895;40.928;14.480;2023-05-10T07:04:58;18.23;;;10.88;;
63688;SDS011;54895;40.928;14.480;2023-05-10T07:07:25;14.65;;;10.48;;
63688;SDS011;54895;40.928;14.480;2023-05-10T07:09:51;14.82;;;9.95;;
63688;SDS011;54895;40.928;14.480;2023-05-10T07:12:17;14.48;;;10.38;;
63688;SDS011;54895;40.928;14.480;2023-05-10T07:14:43;13.65;;;9.55;;
63688;SDS011;54895;40.928;14.480;2023-05-10T07:17:10;13.93;;;10.15;;
63688;SDS011;54895;40.928;14.480;2023-05-10T07:19:36;11.68;;;9.18;;
63688;SDS011;54895;40.928;14.480;2023-05-10T07:22:02;15.18;;;10.23;;
63688;SDS011;54895;40.928;14.480;2023-05-10T07:24:29;13.15;;;9.80;;
63688;SDS011;54895;40.928;14.480;2023-05-10T07:26:55;12.70;;;9.50;;
63688;SDS011;54895;40.928;14.480;2023-05-10T07:29:22;14.63;;;9.93;;
63688;SDS011;54895;40.928;14.480;2023-05-10T07:31:48;12.18;;;8.82;;
63688;SDS011;54895;40.928;14.480;2023-05-10T07:38:28;16.50;;;10.88;;
63688;SDS011;54895;40.928;14.480;2023-05-10T07:40:57;16.40;;;11.05;;
63688;SDS011;54895;40.928;14.480;2023-05-10T07:43:24;17.52;;;10.82;;
63688;SDS011;54895;40.928;14.480;2023-05-10T07:45:50;15.75;;;10.60;;
63688;SDS011;54895;40.928;14.480;2023-05-10T07:48:17;18.52;;;12.13;;
63688;SDS011;54895;40.928;14.480;2023-05-10T07:50:44;16.05;;;11.75;;
63688;SDS011;54895;40.928;14.480;2023-05-10T07:53:10;15.35;;;11.07;;
63688;SDS011;54895;40.928;14.480;2023-05-10T07:55:37;14.15;;;9.25;;
63688;SDS011;54895;40.928;14.480;2023-05-10T07:58:03;16.27;;;10.18;;
63688;SDS011;54895;40.928;14.480;2023-05-10T08:00:30;12.35;;;9.02;;
63688;SDS011;54895;40.928;14.480;2023-05-10T08:02:56;12.95;;;9.80;;
63688;SDS011;54895;40.928;14.480;2023-05-10T08:05:22;14.27;;;9.77;;
63688;SDS011;54895;40.928;14.480;2023-05-10T08:07:49;12.45;;;9.45;;
63688;SDS011;54895;40.928;14.480;2023-05-10T08:10:15;11.55;;;9.35;;
63688;SDS011;54895;40.928;14.480;2023-05-10T08:12:42;14.25;;;10.05;;
63688;SDS011;54895;40.928;14.480;2023-05-10T08:15:09;13.82;;;10.18;;
63688;SDS011;54895;40.928;14.480;2023-05-10T08:17:35;14.35;;;10.50;;
63688;SDS011;54895;40.928;14.480;2023-05-10T08:20:02;13.15;;;9.77;;
63688;SDS011;54895;40.928;14.480;2023-05-10T08:22:28;12.18;;;8.88;;
63688;SDS011;54895;40.928;14.480;2023-05-10T08:24:55;13.55;;;9.48;;
63688;SDS011;54895;40.928;14.480;2023-05-10T08:27:21;13.98;;;10.07;;
63688;SDS011;54895;40.928;14.480;2023-05-10T08:29:47;18.17;;;10.02;;
63688;SDS011;54895;40.928;14.480;2023-05-10T08:32:14;12.68;;;9.90;;
63688;SDS011;54895;40.928;14.480;2023-05-10T08:38:22;13.48;;;10.02;;
63688;SDS011;54895;40.928;14.480;2023-05-10T08:40:48;14.63;;;10.48;;
63688;SDS011;54895;40.928;14.480;2023-05-10T08:43:16;13.57;;;9.27;;
63688;SDS011;54895;40.928;14.480;2023-05-10T08:45:43;13.10;;;9.70;;
63688;SDS011;54895;40.928;14.480;2023-05-10T08:48:13;12.70;;;9.27;;
63688;SDS011;54895;40.928;14.480;2023-05-10T08:50:40;12.90;;;10.70;;
63688;SDS011;54895;40.928;14.480;2023-05-10T08:53:12;13.15;;;9.70;;
63688;SDS011;54895;40.928;14.480;2023-05-10T08:55:41;11.73;;;7.78;;
63688;SDS011;54895;40.928;14.480;2023-05-10T08:58:08;4.95;;;4.07;;
63688;SDS011;54895;40.928;14.480;2023-05-10T09:00:35;4.13;;;2.38;;
63688;SDS011;54895;40.928;14.480;2023-05-10T09:03:03;4.90;;;2.25;;
63688;SDS011;54895;40.928;14.480;2023-05-10T09:05:30;1.80;;;1.38;;
63688;SDS011;54895;40.928;14.480;2023-05-10T09:07:57;3.25;;;2.03;;
63688;SDS011;54895;40.928;14.480;2023-05-10T09:10:24;3.78;;;2.40;;
63688;SDS011;54895;40.928;14.480;2023-05-10T09:12:53;2.75;;;1.83;;
63688;SDS011;54895;40.928;14.480;2023-05-10T09:15:22;2.83;;;1.50;;
63688;SDS011;54895;40.928;14.480;2023-05-10T09:17:48;2.17;;;1.70;;
63688;SDS011;54895;40.928;14.480;2023-05-10T09:20:15;2.92;;;1.50;;
63688;SDS011;54895;40.928;14.480;2023-05-10T09:22:43;2.05;;;1.52;;
63688;SDS011;54895;40.928;14.480;2023-05-10T09:25:11;1.90;;;1.40;;
63688;SDS011;54895;40.928;14.480;2023-05-10T09:27:39;2.90;;;1.80;;
63688;SDS011;54895;40.928;14.480;2023-05-10T09:30:07;1.80;;;1.38;;
63688;SDS011;54895;40.928;14.480;2023-05-10T09:32:40;2.00;;;1.38;;
63688;SDS011;54895;40.928;14.480;2023-05-10T09:39:04;2.47;;;1.48;;
63688;SDS011;54895;40.928;14.480;2023-05-10T09:41:30;2.63;;;1.48;;
63688;SDS011;54895;40.928;14.480;2023-05-10T09:43:57;1.20;;;1.10;;
63688;SDS011;54895;40.928;14.480;2023-05-10T09:46:23;2.38;;;1.52;;
63688;SDS011;54895;40.928;14.480;2023-05-10T09:48:50;1.58;;;1.38;;
63688;SDS011;54895;40.928;14.480;2023-05-10T09:51:23;2.80;;;1.40;;
63688;SDS011;54895;40.928;14.480;2023-05-10T09:54:11;1.77;;;1.30;;
63688;SDS011;54895;40.928;14.480;2023-05-10T09:56:41;4.05;;;1.48;;
63688;SDS011;54895;40.928;14.480;2023-05-10T09:59:11;2.75;;;1.55;;
63688;SDS011;54895;40.928;14.480;2023-05-10T10:01:38;3.17;;;1.80;;
63688;SDS011;54895;40.928;14.480;2023-05-10T10:04:05;2.10;;;1.50;;
63688;SDS011;54895;40.928;14.480;2023-05-10T10:06:37;3.17;;;1.50;;
63688;SDS011;54895;40.928;14.480;2023-05-10T10:09:05;2.28;;;1.55;;
63688;SDS011;54895;40.928;14.480;2023-05-10T10:11:35;1.90;;;1.40;;
63688;SDS011;54895;40.928;14.480;2023-05-10T10:14:03;2.55;;;1.73;;
63688;SDS011;54895;40.928;14.480;2023-05-10T10:16:31;2.45;;;1.55;;
63688;SDS011;54895;40.928;14.480;2023-05-10T10:18:58;2.13;;;1.50;;
63688;SDS011;54895;40.928;14.480;2023-05-10T10:21:24;2.95;;;1.70;;
63688;SDS011;54895;40.928;14.480;2023-05-10T10:23:51;4.57;;;1.67;;
63688;SDS011;54895;40.928;14.480;2023-05-10T10:26:19;3.55;;;2.10;;
63688;SDS011;54895;40.928;14.480;2023-05-10T10:38:38;6.10;;;2.75;;
63688;SDS011;54895;40.928;14.480;2023-05-10T10:41:29;4.85;;;2.50;;
63688;SDS011;54895;40.928;14.480;2023-05-10T10:49:49;3.13;;;1.83;;
63688;SDS011;54895;40.928;14.480;2023-05-10T10:52:34;3.75;;;2.28;;
63688;SDS011;54895;40.928;14.480;2023-05-10T10:57:52;3.63;;;2.03;;
63688;SDS011;54895;40.928;14.480;2023-05-10T11:03:06;3.72;;;2.50;;
63688;SDS011;54895;40.928;14.480;2023-05-10T11:05:44;5.28;;;2.80;;
63688;SDS011;54895;40.928;14.480;2023-05-10T11:10:40;6.32;;;2.67;;
63688;SDS011;54895;40.928;14.480;2023-05-10T11:13:26;5.10;;;3.20;;
63688;SDS011;54895;40.928;14.480;2023-05-10T11:21:50;4.78;;;3.47;;
63688;SDS011;54895;40.928;14.480;2023-05-10T11:24:21;5.47;;;3.83;;
63688;SDS011;54895;40.928;14.480;2023-05-10T11:26:49;6.97;;;4.13;;
63688;SDS011;54895;40.928;14.480;2023-05-10T11:29:17;5.03;;;3.78;;
63688;SDS011;54895;40.928;14.480;2023-05-10T11:31:46;6.85;;;4.22;;
63688;SDS011;54895;40.928;14.480;2023-05-10T11:38:27;5.53;;;4.10;;
63688;SDS011;54895;40.928;14.480;2023-05-10T11:40:53;4.53;;;3.60;;
63688;SDS011;54895;40.928;14.480;2023-05-10T11:43:20;4.25;;;2.67;;
63688;SDS011;54895;40.928;14.480;2023-05-10T11:45:54;6.22;;;3.13;;
63688;SDS011;54895;40.928;14.480;2023-05-10T11:48:20;5.32;;;3.33;;
63688;SDS011;54895;40.928;14.480;2023-05-10T11:50:49;3.25;;;2.55;;
63688;SDS011;54895;40.928;14.480;2023-05-10T11:53:16;3.50;;;2.20;;
63688;SDS011;54895;40.928;14.480;2023-05-10T11:55:42;5.60;;;2.22;;
63688;SDS011;54895;40.928;14.480;2023-05-10T11:58:09;5.45;;;2.40;;
63688;SDS011;54895;40.928;14.480;2023-05-10T12:00:35;3.25;;;2.00;;
63688;SDS011;54895;40.928;14.480;2023-05-10T12:03:02;2.33;;;1.60;;
63688;SDS011;54895;40.928;14.480;2023-05-10T12:05:31;1.80;;;1.50;;
63688;SDS011;54895;40.928;14.480;2023-05-10T12:08:15;3.38;;;1.90;;
63688;SDS011;54895;40.928;14.480;2023-05-10T12:10:45;3.28;;;1.98;;
63688;SDS011;54895;40.928;14.480;2023-05-10T12:13:12;4.38;;;1.60;;
63688;SDS011;54895;40.928;14.480;2023-05-10T12:15:41;3.47;;;1.85;;
63688;SDS011;54895;40.928;14.480;2023-05-10T12:18:12;1.45;;;1.25;;
63688;SDS011;54895;40.928;14.480;2023-05-10T12:20:39;2.45;;;2.00;;
63688;SDS011;54895;40.928;14.480;2023-05-10T12:23:08;2.13;;;1.67;;
63688;SDS011;54895;40.928;14.480;2023-05-10T12:25:36;3.38;;;2.05;;
63688;SDS011;54895;40.928;14.480;2023-05-10T12:28:04;5.70;;;1.88;;
63688;SDS011;54895;40.928;14.480;2023-05-10T12:30:35;2.63;;;1.80;;
63688;SDS011;54895;40.928;14.480;2023-05-10T12:33:08;2.75;;;1.83;;
63688;SDS011;54895;40.928;14.480;2023-05-10T12:38:51;4.15;;;1.98;;
63688;SDS011;54895;40.928;14.480;2023-05-10T12:41:28;4.55;;;1.95;;
63688;SDS011;54895;40.928;14.480;2023-05-10T12:43:55;2.00;;;1.77;;
63688;SDS011;54895;40.928;14.480;2023-05-10T12:46:21;2.10;;;1.60;;
63688;SDS011;54895;40.928;14.480;2023-05-10T12:48:51;3.10;;;1.50;;
63688;SDS011;54895;40.928;14.480;2023-05-10T12:51:21;2.00;;;1.13;;
63688;SDS011;54895;40.928;14.480;2023-05-10T12:53:48;1.65;;;1.10;;
63688;SDS011;54895;40.928;14.480;2023-05-10T12:56:15;1.40;;;1.30;;
63688;SDS011;54895;40.928;14.480;2023-05-10T12:58:42;2.28;;;1.40;;
63688;SDS011;54895;40.928;14.480;2023-05-10T13:01:14;1.63;;;1.20;;
63688;SDS011;54895;40.928;14.480;2023-05-10T13:03:41;3.53;;;1.50;;
63688;SDS011;54895;40.928;14.480;2023-05-10T13:06:09;3.40;;;1.80;;
63688;SDS011;54895;40.928;14.480;2023-05-10T13:08:36;3.60;;;1.90;;
63688;SDS011;54895;40.928;14.480;2023-05-10T13:11:03;2.88;;;1.75;;
63688;SDS011;54895;40.928;14.480;2023-05-10T13:13:33;2.47;;;1.60;;
63688;SDS011;54895;40.928;14.480;2023-05-10T13:16:00;3.00;;;1.27;;
63688;SDS011;54895;40.928;14.480;2023-05-10T13:18:29;4.57;;;1.67;;
63688;SDS011;54895;40.928;14.480;2023-05-10T13:20:56;2.88;;;1.73;;
63688;SDS011;54895;40.928;14.480;2023-05-10T13:23:24;4.93;;;1.63;;
63688;SDS011;54895;40.928;14.480;2023-05-10T13:25:51;2.33;;;1.70;;
63688;SDS011;54895;40.928;14.480;2023-05-10T13:28:19;3.50;;;2.03;;
63688;SDS011;54895;40.928;14.480;2023-05-10T13:30:47;3.30;;;2.05;;
63688;SDS011;54895;40.928;14.480;2023-05-10T13:33:14;2.72;;;1.40;;
63688;SDS011;54895;40.928;14.480;2023-05-10T13:35:41;2.10;;;1.60;;
63688;SDS011;54895;40.928;14.480;2023-05-10T13:38:09;2.55;;;1.38;;
63688;SDS011;54895;40.928;14.480;2023-05-10T13:40:37;2.67;;;1.80;;
63688;SDS011;54895;40.928;14.480;2023-05-10T13:43:08;2.08;;;1.15;;
63688;SDS011;54895;40.928;14.480;2023-05-10T13:45:35;1.88;;;1.50;;
63688;SDS011;54895;40.928;14.480;2023-05-10T13:48:04;2.00;;;1.10;;
63688;SDS011;54895;40.928;14.480;2023-05-10T13:50:31;2.55;;;1.40;;
63688;SDS011;54895;40.928;14.480;2023-05-10T13:53:01;3.70;;;1.50;;
63688;SDS011;54895;40.928;14.480;2023-05-10T13:55:28;3.03;;;1.35;;
63688;SDS011;54895;40.928;14.480;2023-05-10T13:57:56;1.40;;;1.30;;
63688;SDS011;54895;40.928;14.480;2023-05-10T14:00:23;2.75;;;1.50;;
63688;SDS011;54895;40.928;14.480;2023-05-10T14:02:50;1.15;;;1.05;;
63688;SDS011;54895;40.928;14.480;2023-05-10T14:05:18;2.17;;;1.40;;
63688;SDS011;54895;40.928;14.480;2023-05-10T14:07:46;3.25;;;1.30;;
63688;SDS011;54895;40.928;14.480;2023-05-10T14:10:13;2.47;;;1.48;;
63688;SDS011;54895;40.928;14.480;2023-05-10T14:12:41;3.35;;;1.73;;
63688;SDS011;54895;40.928;14.480;2023-05-10T14:15:09;2.33;;;1.58;;
63688;SDS011;54895;40.928;14.480;2023-05-10T14:17:38;3.00;;;1.80;;
63688;SDS011;54895;40.928;14.480;2023-05-10T14:20:06;3.83;;;1.90;;
63688;SDS011;54895;40.928;14.480;2023-05-10T14:22:34;2.97;;;2.22;;
63688;SDS011;54895;40.928;14.480;2023-05-10T14:25:02;3.10;;;1.95;;
63688;SDS011;54895;40.928;14.480;2023-05-10T14:27:32;2.72;;;2.00;;
63688;SDS011;54895;40.928;14.480;2023-05-10T14:30:00;3.65;;;2.28;;
63688;SDS011;54895;40.928;14.480;2023-05-10T14:32:28;5.20;;;2.25;;
63688;SDS011;54895;40.928;14.480;2023-05-10T14:38:42;4.20;;;2.00;;
63688;SDS011;54895;40.928;14.480;2023-05-10T14:41:09;4.72;;;2.70;;
63688;SDS011;54895;40.928;14.480;2023-05-10T14:43:40;4.10;;;2.60;;
63688;SDS011;54895;40.928;14.480;2023-05-10T14:46:07;4.32;;;2.60;;
63688;SDS011;54895;40.928;14.480;2023-05-10T14:48:34;3.72;;;2.38;;
63688;SDS011;54895;40.928;14.480;2023-05-10T14:51:01;4.00;;;2.35;;
63688;SDS011;54895;40.928;14.480;2023-05-10T14:53:28;4.00;;;2.17;;
63688;SDS011;54895;40.928;14.480;2023-05-10T14:55:54;4.07;;;2.50;;
63688;SDS011;54895;40.928;14.480;2023-05-10T14:58:21;4.05;;;1.83;;
63688;SDS011;54895;40.928;14.480;2023-05-10T15:00:47;2.72;;;1.73;;
63688;SDS011;54895;40.928;14.480;2023-05-10T15:03:14;5.38;;;1.60;;
63688;SDS011;54895;40.928;14.480;2023-05-10T15:05:41;3.05;;;2.15;;
63688;SDS011;54895;40.928;14.480;2023-05-10T15:08:07;3.85;;;1.88;;
63688;SDS011;54895;40.928;14.480;2023-05-10T15:10:35;5.32;;;2.65;;
63688;SDS011;54895;40.928;14.480;2023-05-10T15:13:03;4.78;;;2.40;;
63688;SDS011;54895;40.928;14.480;2023-05-10T15:15:30;4.07;;;2.20;;
63688;SDS011;54895;40.928;14.480;2023-05-10T15:17:56;5.28;;;2.30;;
63688;SDS011;54895;40.928;14.480;2023-05-10T15:20:23;4.53;;;2.00;;
63688;SDS011;54895;40.928;14.480;2023-05-10T15:22:49;5.93;;;2.40;;
63688;SDS011;54895;40.928;14.480;2023-05-10T15:25:16;6.28;;;2.60;;
63688;SDS011;54895;40.928;14.480;2023-05-10T15:27:43;4.57;;;2.67;;
63688;SDS011;54895;40.928;14.480;2023-05-10T15:30:09;4.90;;;2.85;;
63688;SDS011;54895;40.928;14.480;2023-05-10T15:32:37;7.32;;;3.10;;
63688;SDS011;54895;40.928;14.480;2023-05-10T15:39:01;4.68;;;2.65;;
63688;SDS011;54895;40.928;14.480;2023-05-10T15:41:29;4.32;;;3.47;;
63688;SDS011;54895;40.928;14.480;2023-05-10T15:43:56;5.07;;;3.40;;
63688;SDS011;54895;40.928;14.480;2023-05-10T15:46:28;4.90;;;3.30;;
63688;SDS011;54895;40.928;14.480;2023-05-10T15:48:58;4.72;;;3.65;;
63688;SDS011;54895;40.928;14.480;2023-05-10T15:51:26;6.60;;;3.55;;
63688;SDS011;54895;40.928;14.480;2023-05-10T15:53:53;9.70;;;4.32;;
63688;SDS011;54895;40.928;14.480;2023-05-10T15:56:20;7.75;;;3.85;;
63688;SDS011;54895;40.928;14.480;2023-05-10T15:58:47;6.97;;;3.85;;
63688;SDS011;54895;40.928;14.480;2023-05-10T16:01:15;4.85;;;3.85;;
63688;SDS011;54895;40.928;14.480;2023-05-10T16:03:41;3.67;;;2.75;;
63688;SDS011;54895;40.928;14.480;2023-05-10T16:06:08;4.63;;;3.22;;
63688;SDS011;54895;40.928;14.480;2023-05-10T16:08:34;6.28;;;3.42;;
63688;SDS011;54895;40.928;14.480;2023-05-10T16:11:01;7.07;;;3.70;;
63688;SDS011;54895;40.928;14.480;2023-05-10T16:13:28;5.18;;;3.95;;